Hovedside
METAR-TAF:

METAR-TAF

Lufthavner :

Malmö lufthavn

Malmö, Sverige

breddegrad: 55-33N, lengdegrad: 013-22E, høyde over havet: 106 m

Gjeldene værobservasjon

Denne rapporten ble laget for 26 minutter siden, klokken 03:50 UTC
Vind 9 kt fra Nordvest
Temperatur 5°C
Luftfuktighet 75%
Trykk 1006 hPa
Sikt 10 km eller mer
ingen skyer under 1500 m og ingen bygeskyer

METAR: ESMS 240350Z 31009KT CAVOK 05/01 Q1006

Tid: 06:16 (04:16 UTC)

Varsel

Denne rapporten ble laget for 5 timer og 16 minutter siden, klokken 23:00 UTC
Varsel gyldig fra 24. klokken 00 UTC til 24. klokken 24 UTC
Vind 10 kt fra Nordvest
Sikt 10 km eller mer
Få skyer i en høyde av 3000 ft
Midlertidig
fra 24. klokken 08 UTC til 24. klokken 15 UTC
Vind 15 kt fra Nordvest med vindkast opp mot 25 kt
Blir
fra 24. klokken 22 UTC til 24. klokken 24 UTC
Brutte skyer i en høyde av 1000 ft

TAF: ESMS 232300Z 2400/2424 32010KT 9999 FEW030 TEMPO 2408/2415 32015G25KT BECMG 2422/2424 BKN010

Værobservasjoner og værvarsel for over 4000 flyplasser (METAR- og TAF-rapporter).

Tilgjengelige stasjoner er representert av de røde og gule prikkene på kartet.

Hold musepekeren over prikken for å se navnet på stasjonen.

Klikk så for å se værobservasjoner og -varsler.

For å forandre kartet kan du klikke på den grønne knappen med svart kryss for å zoome inn, på den grønne knappen med strek for å zoome ut, eller på de grønne pilene for å se tilstøtende kart.


METAR-TAF: